createdAt,value
2022-09-12T00:01:22.534Z,22.80
2022-09-12T00:03:53.214Z,22.83
2022-09-12T00:06:23.964Z,22.83
2022-09-12T00:08:56.087Z,22.84
2022-09-12T00:11:24.518Z,22.84
2022-09-12T00:13:52.966Z,22.77
2022-09-12T00:16:23.723Z,22.81
2022-09-12T00:18:53.870Z,22.81
2022-09-12T00:21:23.149Z,22.85
2022-09-12T00:23:53.235Z,22.83
2022-09-12T00:26:22.875Z,22.80
2022-09-12T00:28:51.714Z,22.84
2022-09-12T00:31:24.239Z,22.82
2022-09-12T00:33:52.639Z,22.85
2022-09-12T00:36:23.528Z,22.81
2022-09-12T00:38:54.863Z,22.83
2022-09-12T00:41:25.997Z,22.84
2022-09-12T00:43:56.222Z,22.81
2022-09-12T00:46:33.794Z,22.80
2022-09-12T00:49:06.995Z,22.78
2022-09-12T00:51:38.051Z,22.79
2022-09-12T00:54:12.497Z,22.81
2022-09-12T00:56:43.491Z,22.80
2022-09-12T00:59:16.256Z,22.85
2022-09-12T01:01:48.109Z,22.76
2022-09-12T01:04:18.889Z,22.78
2022-09-12T01:06:49.430Z,22.77
2022-09-12T01:09:23.009Z,22.78
2022-09-12T01:11:53.356Z,22.78
2022-09-12T01:14:22.640Z,22.79
2022-09-12T01:16:52.428Z,22.75
2022-09-12T01:19:52.523Z,22.72
2022-09-12T01:22:38.004Z,22.78
2022-09-12T01:25:24.340Z,22.78
2022-09-12T01:28:13.293Z,22.79
2022-09-12T01:30:49.373Z,22.79
2022-09-12T01:33:33.778Z,22.77
2022-09-12T01:36:26.865Z,22.81
2022-09-12T01:39:01.555Z,22.78
2022-09-12T01:41:38.774Z,22.76
2022-09-12T01:44:16.292Z,22.76
2022-09-12T01:46:50.253Z,22.77
2022-09-12T01:49:24.417Z,22.77
2022-09-12T01:52:01.284Z,22.77
2022-09-12T01:54:38.069Z,22.81
2022-09-12T01:57:13.870Z,22.76
2022-09-12T01:59:46.957Z,22.71
2022-09-12T02:02:21.720Z,22.77
2022-09-12T02:04:54.473Z,22.76
2022-09-12T02:07:27.851Z,22.78
2022-09-12T02:10:03.123Z,22.78
2022-09-12T02:12:39.937Z,22.77
2022-09-12T02:15:10.790Z,22.79
2022-09-12T02:17:43.908Z,22.76
2022-09-12T02:20:26.041Z,22.73
2022-09-12T02:23:10.674Z,22.78
2022-09-12T02:25:43.267Z,22.80
2022-09-12T02:28:16.568Z,22.74
2022-09-12T02:30:50.874Z,22.72
2022-09-12T02:33:28.561Z,22.72
2022-09-12T02:36:04.987Z,22.69
2022-09-12T02:38:43.001Z,22.78
2022-09-12T02:41:12.153Z,22.76
2022-09-12T02:43:40.633Z,22.71
2022-09-12T02:46:12.640Z,22.72
2022-09-12T02:48:44.927Z,22.77
2022-09-12T02:51:13.474Z,22.77
2022-09-12T02:53:43.204Z,22.74
2022-09-12T02:56:18.578Z,22.79
2022-09-12T02:58:47.703Z,22.78
2022-09-12T03:01:37.574Z,22.70
2022-09-12T03:04:32.705Z,22.74
2022-09-12T03:07:12.606Z,22.76
2022-09-12T03:09:47.197Z,22.70
2022-09-12T03:12:36.758Z,22.71
2022-09-12T03:15:15.872Z,22.78
2022-09-12T03:17:57.981Z,22.73
2022-09-12T03:20:42.267Z,22.74
2022-09-12T03:23:19.113Z,22.75
2022-09-12T03:25:53.466Z,22.75
2022-09-12T03:28:23.831Z,22.70
2022-09-12T03:30:54.470Z,22.79
2022-09-12T03:33:24.854Z,22.77
2022-09-12T03:35:56.182Z,22.75
2022-09-12T03:38:24.594Z,22.75
2022-09-12T03:40:54.825Z,22.76
2022-09-12T03:43:23.594Z,22.72
2022-09-12T03:45:52.397Z,22.69
2022-09-12T03:48:20.796Z,22.71
2022-09-12T03:50:49.202Z,22.74
2022-09-12T03:53:18.902Z,22.72
2022-09-12T03:55:47.262Z,22.76
2022-09-12T03:58:15.545Z,22.74
2022-09-12T04:00:44.530Z,22.75
2022-09-12T04:03:12.814Z,22.69
2022-09-12T04:05:41.221Z,22.75
2022-09-12T04:08:09.546Z,22.71
2022-09-12T04:10:39.565Z,22.69
2022-09-12T04:13:08.243Z,22.67
2022-09-12T04:15:36.556Z,22.69
2022-09-12T04:18:06.071Z,22.72
2022-09-12T04:20:34.569Z,22.70
2022-09-12T04:23:02.945Z,22.70
2022-09-12T04:25:31.497Z,22.69
2022-09-12T04:28:01.401Z,22.68
2022-09-12T04:30:29.708Z,22.69
2022-09-12T04:32:58.143Z,22.66
2022-09-12T04:35:26.957Z,22.71
2022-09-12T04:37:55.625Z,22.67
2022-09-12T04:40:24.120Z,22.70
2022-09-12T04:42:52.484Z,22.72
2022-09-12T04:45:22.169Z,22.74
2022-09-12T04:47:50.395Z,22.71
2022-09-12T04:50:19.257Z,22.71
2022-09-12T04:52:51.513Z,22.75
2022-09-12T04:55:20.165Z,22.71
2022-09-12T04:57:48.903Z,22.72
2022-09-12T05:00:17.588Z,22.74
2022-09-12T05:02:47.307Z,22.76
2022-09-12T05:05:15.912Z,22.75
2022-09-12T05:07:44.277Z,22.69
2022-09-12T05:10:12.885Z,22.72
2022-09-12T05:12:41.216Z,22.74
2022-09-12T05:15:10.916Z,22.72
2022-09-12T05:17:39.157Z,22.75
2022-09-12T05:20:12.982Z,22.82
2022-09-12T05:22:41.366Z,22.78
2022-09-12T05:25:10.834Z,22.80
2022-09-12T05:27:39.153Z,22.69
2022-09-12T05:30:08.907Z,22.75
2022-09-12T05:32:37.323Z,22.75
2022-09-12T05:35:06.363Z,22.80
2022-09-12T05:37:36.014Z,22.73
2022-09-12T05:40:07.766Z,22.76
2022-09-12T05:42:36.938Z,22.74
2022-09-12T05:45:06.186Z,22.77
2022-09-12T05:47:34.303Z,22.65
2022-09-12T05:50:02.751Z,22.68
2022-09-12T05:52:31.308Z,22.77
2022-09-12T05:55:01.165Z,22.74
2022-09-12T05:57:29.591Z,22.73
2022-09-12T05:59:58.456Z,22.73
2022-09-12T06:02:26.977Z,22.77
2022-09-12T06:04:57.997Z,22.79
2022-09-12T06:07:26.438Z,22.73
2022-09-12T06:09:54.768Z,22.75
2022-09-12T06:12:24.371Z,22.75
2022-09-12T06:14:52.739Z,22.78
2022-09-12T06:17:21.032Z,22.75
2022-09-12T06:19:50.403Z,22.77
2022-09-12T06:22:18.967Z,22.72
2022-09-12T06:24:47.394Z,22.81
2022-09-12T06:27:16.232Z,22.81
2022-09-12T06:29:46.052Z,22.81
2022-09-12T06:32:14.403Z,22.79
2022-09-12T06:34:42.838Z,22.77
2022-09-12T06:37:11.350Z,22.80
2022-09-12T06:39:39.777Z,22.79
2022-09-12T06:42:08.332Z,22.82
2022-09-12T06:44:37.586Z,22.77
2022-09-12T06:47:07.657Z,22.83
2022-09-12T06:49:36.023Z,22.78
2022-09-12T06:52:04.370Z,22.73
2022-09-12T06:54:32.735Z,22.70
2022-09-12T06:57:00.944Z,22.70
2022-09-12T06:59:29.299Z,22.69
2022-09-12T07:01:57.929Z,22.73
2022-09-12T07:04:27.896Z,22.68
2022-09-12T07:06:56.294Z,22.73
2022-09-12T07:09:24.542Z,22.74
2022-09-12T07:11:52.777Z,22.67
2022-09-12T07:14:21.159Z,22.67
2022-09-12T07:16:49.518Z,22.67
2022-09-12T07:19:17.958Z,22.71
2022-09-12T07:21:47.723Z,22.77
2022-09-12T07:24:16.118Z,22.73
2022-09-12T07:26:44.378Z,22.72
2022-09-12T07:29:37.037Z,22.74
2022-09-12T07:32:06.097Z,22.74
2022-09-12T07:34:34.873Z,22.69
2022-09-12T07:37:04.929Z,22.74
2022-09-12T07:39:33.744Z,22.73
2022-09-12T07:42:02.048Z,22.69
2022-09-12T07:44:30.962Z,22.65
2022-09-12T07:46:59.278Z,22.69
2022-09-12T07:49:27.580Z,22.70
2022-09-12T07:51:56.021Z,22.73
2022-09-12T07:54:25.793Z,22.68
2022-09-12T07:56:54.043Z,22.71
2022-09-12T07:59:48.314Z,22.68
2022-09-12T08:02:17.269Z,22.67
2022-09-12T08:04:46.882Z,22.71
2022-09-12T08:07:15.386Z,22.74
2022-09-12T08:09:45.110Z,22.70
2022-09-12T08:12:13.583Z,22.70
2022-09-12T08:14:42.000Z,22.70
2022-09-12T08:17:10.419Z,22.71
2022-09-12T08:19:39.555Z,22.71
2022-09-12T08:22:08.450Z,22.72
2022-09-12T08:24:36.655Z,22.72
2022-09-12T08:27:06.748Z,22.78
2022-09-12T08:29:35.171Z,22.82
2022-09-12T08:32:04.239Z,22.77
2022-09-12T08:34:32.665Z,22.74
2022-09-12T08:37:00.958Z,22.68
2022-09-12T08:39:29.318Z,22.71
2022-09-12T08:42:03.217Z,22.77
2022-09-12T08:45:06.017Z,22.68
2022-09-12T08:47:37.824Z,22.71
2022-09-12T08:50:15.471Z,22.69
2022-09-12T08:52:51.115Z,22.78
2022-09-12T08:55:31.232Z,22.70
2022-09-12T08:58:01.173Z,22.72
2022-09-12T09:00:40.694Z,22.74
2022-09-12T09:03:45.375Z,22.72
2022-09-12T09:06:28.486Z,22.74
2022-09-12T09:09:06.122Z,22.72
2022-09-12T09:11:48.404Z,22.71
2022-09-12T09:14:50.074Z,22.69
2022-09-12T09:17:27.859Z,22.71
2022-09-12T09:20:05.069Z,22.77
2022-09-12T09:22:42.715Z,22.75
2022-09-12T09:25:22.711Z,22.74
2022-09-12T09:27:59.067Z,22.78
2022-09-12T09:30:28.772Z,22.80
2022-09-12T09:33:01.081Z,22.80
2022-09-12T09:35:40.312Z,22.77
2022-09-12T09:38:23.468Z,22.77
2022-09-12T09:41:04.791Z,22.81
2022-09-12T09:43:33.208Z,22.82
2022-09-12T09:46:02.070Z,22.80
2022-09-12T09:48:34.010Z,22.78
2022-09-12T09:51:05.631Z,22.79
2022-09-12T09:53:41.012Z,22.87
2022-09-12T09:56:14.074Z,22.84
2022-09-12T09:58:42.926Z,22.83
2022-09-12T10:01:17.303Z,22.85
2022-09-12T10:03:55.146Z,22.80
2022-09-12T10:06:27.279Z,22.81
2022-09-12T10:09:09.279Z,22.75
2022-09-12T10:11:43.687Z,22.81
2022-09-12T10:14:44.216Z,22.80
2022-09-12T10:17:33.919Z,22.82
2022-09-12T10:20:20.605Z,22.84
2022-09-12T10:22:50.781Z,22.93
2022-09-12T10:25:21.360Z,22.86
2022-09-12T10:27:56.367Z,22.87
2022-09-12T10:30:28.410Z,22.88
2022-09-12T10:33:00.721Z,22.82
2022-09-12T10:35:43.001Z,22.90
2022-09-12T10:38:25.087Z,22.90
2022-09-12T10:40:59.385Z,22.80
2022-09-12T10:43:31.189Z,22.87
2022-09-12T10:46:00.224Z,22.87
2022-09-12T10:48:31.925Z,22.88
2022-09-12T10:51:02.664Z,22.87
2022-09-12T10:53:41.402Z,22.90
2022-09-12T10:56:12.217Z,22.90
2022-09-12T10:58:52.104Z,22.87
2022-09-12T11:01:36.038Z,22.87
2022-09-12T11:04:25.813Z,22.90
2022-09-12T11:07:08.463Z,22.91
2022-09-12T11:09:43.791Z,22.94
2022-09-12T11:12:20.431Z,22.93
2022-09-12T11:15:03.872Z,22.93
2022-09-12T11:17:43.424Z,22.93
2022-09-12T11:20:37.389Z,22.92
2022-09-12T11:23:29.614Z,22.93
2022-09-12T11:26:04.793Z,22.95
2022-09-12T11:28:47.175Z,22.92
2022-09-12T11:31:35.274Z,22.95
2022-09-12T11:34:09.779Z,22.93
2022-09-12T11:36:44.967Z,22.91
2022-09-12T11:39:18.793Z,22.93
2022-09-12T11:41:52.511Z,22.94
2022-09-12T11:44:24.499Z,22.95
2022-09-12T11:46:53.123Z,23.06
2022-09-12T11:49:34.777Z,22.94
2022-09-12T11:52:08.479Z,22.98
2022-09-12T11:54:44.965Z,22.97
2022-09-12T11:57:18.509Z,22.93
2022-09-12T11:59:51.379Z,22.93
2022-09-12T12:02:27.932Z,22.95
2022-09-12T12:05:03.974Z,22.98
2022-09-12T12:07:45.550Z,22.98
2022-09-12T12:10:28.316Z,22.96
2022-09-12T12:12:58.808Z,22.97
2022-09-12T12:15:29.133Z,22.98
2022-09-12T12:18:07.213Z,23.00
2022-09-12T12:20:36.513Z,22.99
2022-09-12T12:23:05.092Z,23.00
2022-09-12T12:25:54.184Z,22.97
2022-09-12T12:29:01.331Z,22.98
2022-09-12T12:31:29.853Z,23.01
2022-09-12T12:34:29.714Z,22.97
2022-09-12T12:37:00.189Z,23.09
2022-09-12T12:40:04.082Z,23.04
2022-09-12T12:43:29.565Z,22.99
2022-09-12T12:46:12.702Z,23.01
2022-09-12T12:49:10.900Z,22.99
2022-09-12T12:51:59.185Z,23.00
2022-09-12T12:54:52.516Z,23.02
2022-09-12T12:57:28.418Z,22.99
2022-09-12T13:00:02.321Z,22.99
2022-09-12T13:02:34.882Z,23.05
2022-09-12T13:05:07.075Z,23.04
2022-09-12T13:07:38.756Z,23.08
2022-09-12T13:10:09.290Z,23.05
2022-09-12T13:12:45.561Z,23.04
2022-09-12T13:15:46.149Z,23.00
2022-09-12T13:18:20.044Z,23.04
2022-09-12T13:20:52.147Z,23.05
2022-09-12T13:23:26.439Z,23.05
2022-09-12T13:25:55.975Z,23.10
2022-09-12T13:28:26.562Z,23.14
2022-09-12T13:31:02.435Z,23.09
2022-09-12T13:33:41.768Z,23.03
2022-09-12T13:36:39.778Z,22.99
2022-09-12T13:39:20.550Z,23.06
2022-09-12T13:42:27.681Z,23.03
2022-09-12T13:45:00.698Z,23.03
2022-09-12T13:47:33.968Z,23.03
2022-09-12T13:50:05.909Z,23.02
2022-09-12T13:52:37.097Z,23.03
2022-09-12T13:55:09.924Z,23.03
2022-09-12T13:57:41.482Z,23.03
2022-09-12T14:00:20.191Z,23.01
2022-09-12T14:02:49.404Z,23.03
2022-09-12T14:05:21.451Z,22.92
2022-09-12T14:07:56.494Z,23.00
2022-09-12T14:10:32.001Z,23.03
2022-09-12T14:13:02.593Z,23.02
2022-09-12T14:15:33.525Z,23.04
2022-09-12T14:18:03.720Z,23.03
2022-09-12T14:20:37.377Z,23.05
2022-09-12T14:23:17.137Z,23.09
2022-09-12T14:25:47.939Z,23.10
2022-09-12T14:28:23.427Z,23.09
2022-09-12T14:31:05.220Z,23.05
2022-09-12T14:33:36.143Z,23.06
2022-09-12T14:36:18.611Z,23.06
2022-09-12T14:38:51.151Z,23.07
2022-09-12T14:41:25.680Z,23.15
2022-09-12T14:43:57.630Z,23.09
2022-09-12T14:46:31.918Z,23.07
2022-09-12T14:49:03.504Z,23.06
2022-09-12T14:51:38.642Z,23.08
2022-09-12T14:54:07.132Z,23.05
2022-09-12T14:56:41.646Z,23.05
2022-09-12T14:59:28.878Z,23.06
2022-09-12T15:02:33.732Z,23.13
2022-09-12T15:05:24.070Z,23.13
2022-09-12T15:07:59.854Z,23.17
2022-09-12T15:10:31.543Z,23.12
2022-09-12T15:13:15.464Z,23.11
2022-09-12T15:15:45.516Z,23.15
2022-09-12T15:18:15.185Z,23.16
2022-09-12T15:20:45.026Z,23.10
2022-09-12T15:23:19.407Z,23.10
2022-09-12T15:25:48.158Z,23.10
2022-09-12T15:28:21.944Z,23.13
2022-09-12T15:30:52.259Z,23.11
2022-09-12T15:33:22.993Z,23.11
2022-09-12T15:35:51.708Z,23.08
2022-09-12T15:38:26.371Z,23.06
2022-09-12T15:40:55.481Z,23.17
2022-09-12T15:43:26.400Z,23.09
2022-09-12T15:45:54.822Z,23.08
2022-09-12T15:48:23.307Z,23.08
2022-09-12T15:50:51.600Z,23.08
2022-09-12T15:53:21.332Z,23.11
2022-09-12T15:55:49.683Z,23.11
2022-09-12T15:58:18.015Z,23.08
2022-09-12T16:00:46.313Z,23.10
2022-09-12T16:03:22.716Z,23.09
2022-09-12T16:05:51.728Z,23.09
2022-09-12T16:08:21.412Z,23.10
2022-09-12T16:10:54.255Z,23.11
2022-09-12T16:13:22.738Z,23.10
2022-09-12T16:15:50.968Z,23.10
2022-09-12T16:18:19.458Z,23.09
2022-09-12T16:20:47.798Z,23.08
2022-09-12T16:23:16.122Z,23.10
2022-09-12T16:25:45.944Z,23.10
2022-09-12T16:28:14.269Z,23.09
2022-09-12T16:30:42.696Z,23.11
2022-09-12T16:33:11.092Z,23.09
2022-09-12T16:35:39.366Z,23.10
2022-09-12T16:38:07.803Z,23.11
2022-09-12T16:40:36.231Z,23.08
2022-09-12T16:43:05.982Z,23.15
2022-09-12T16:45:34.419Z,23.14
2022-09-12T16:48:03.211Z,23.13
2022-09-12T16:50:31.683Z,23.12
2022-09-12T16:53:00.528Z,23.10
2022-09-12T16:55:32.279Z,23.11
2022-09-12T16:58:00.919Z,23.12
2022-09-12T17:00:30.651Z,23.10
2022-09-12T17:03:00.554Z,23.13
2022-09-12T17:05:29.808Z,23.10
2022-09-12T17:07:59.621Z,23.12
2022-09-12T17:10:28.328Z,23.10
2022-09-12T17:12:57.404Z,23.12
2022-09-12T17:15:25.850Z,23.11
2022-09-12T17:17:55.697Z,23.11
2022-09-12T17:20:24.088Z,23.11
2022-09-12T17:22:52.462Z,23.09
2022-09-12T17:25:21.059Z,23.11
2022-09-12T17:27:49.695Z,23.09
2022-09-12T17:30:18.399Z,23.10
2022-09-12T17:32:46.806Z,23.09
2022-09-12T17:35:16.754Z,23.10
2022-09-12T17:37:45.325Z,23.10
2022-09-12T17:40:14.184Z,23.08
2022-09-12T17:42:43.360Z,23.10
2022-09-12T17:45:18.198Z,23.12
2022-09-12T17:47:47.524Z,23.11
2022-09-12T17:50:31.256Z,23.11
2022-09-12T17:53:00.710Z,23.10
2022-09-12T17:55:32.140Z,23.11
2022-09-12T17:58:01.621Z,23.06
2022-09-12T18:00:43.811Z,23.02
2022-09-12T18:03:12.526Z,23.11
2022-09-12T18:05:48.277Z,23.10
2022-09-12T18:08:16.990Z,23.09
2022-09-12T18:10:45.429Z,23.08
2022-09-12T18:13:14.439Z,23.09
2022-09-12T18:15:42.877Z,23.05
2022-09-12T18:18:11.413Z,23.10
2022-09-12T18:20:39.805Z,23.09
2022-09-12T18:23:09.703Z,23.07
2022-09-12T18:25:38.139Z,23.07
2022-09-12T18:28:09.264Z,23.07
2022-09-12T18:30:37.781Z,23.07
2022-09-12T18:33:06.044Z,23.11
2022-09-12T18:35:34.536Z,23.10
2022-09-12T18:38:02.945Z,23.08
2022-09-12T18:40:32.732Z,23.08
2022-09-12T18:43:01.338Z,23.12
2022-09-12T18:45:29.836Z,23.15
2022-09-12T18:47:58.123Z,23.10
2022-09-12T18:50:26.769Z,23.08
2022-09-12T18:52:59.526Z,23.04
2022-09-12T18:55:28.415Z,23.04
2022-09-12T18:57:58.222Z,23.06
2022-09-12T19:00:27.075Z,23.04
2022-09-12T19:02:55.546Z,23.04
2022-09-12T19:05:24.006Z,23.03
2022-09-12T19:07:52.318Z,23.04
2022-09-12T19:10:20.808Z,23.06
2022-09-12T19:12:49.071Z,23.06
2022-09-12T19:15:19.042Z,23.06
2022-09-12T19:17:47.356Z,23.00
2022-09-12T19:20:15.969Z,23.03
2022-09-12T19:22:44.406Z,23.07
2022-09-12T19:25:12.863Z,23.04
2022-09-12T19:27:41.138Z,23.02
2022-09-12T19:30:10.520Z,23.03
2022-09-12T19:32:40.613Z,22.95
2022-09-12T19:35:09.652Z,23.03
2022-09-12T19:37:38.037Z,23.03
2022-09-12T19:40:07.462Z,23.01
2022-09-12T19:42:36.023Z,23.06
2022-09-12T19:45:04.498Z,23.04
2022-09-12T19:47:32.841Z,23.02
2022-09-12T19:50:02.473Z,23.06
2022-09-12T19:52:30.870Z,23.03
2022-09-12T19:54:59.238Z,22.99
2022-09-12T19:57:27.684Z,23.02
2022-09-12T19:59:55.880Z,23.07
2022-09-12T20:02:26.754Z,23.01
2022-09-12T20:04:55.722Z,23.02
2022-09-12T20:07:25.591Z,23.02
2022-09-12T20:09:55.199Z,23.03
2022-09-12T20:12:23.428Z,23.02
2022-09-12T20:14:51.673Z,23.06
2022-09-12T20:17:19.919Z,23.00
2022-09-12T20:19:48.302Z,23.02
2022-09-12T20:22:16.553Z,23.01
2022-09-12T20:24:46.206Z,23.03
2022-09-12T20:27:14.612Z,23.00
2022-09-12T20:29:42.989Z,23.02
2022-09-12T20:32:11.378Z,23.00
2022-09-12T20:34:39.756Z,22.98
2022-09-12T20:37:08.146Z,23.02
2022-09-12T20:39:36.396Z,23.01
2022-09-12T20:42:06.436Z,23.06
2022-09-12T20:44:34.806Z,23.04
2022-09-12T20:47:03.189Z,23.02
2022-09-12T20:49:31.578Z,23.03
2022-09-12T20:52:00.117Z,23.04
2022-09-12T20:54:28.480Z,23.02
2022-09-12T20:56:56.728Z,23.00
2022-09-12T20:59:26.485Z,23.02
2022-09-12T21:01:54.877Z,23.02
2022-09-12T21:04:24.054Z,23.04
2022-09-12T21:06:52.368Z,23.00
2022-09-12T21:09:20.665Z,23.00
2022-09-12T21:11:49.117Z,22.99
2022-09-12T21:14:17.534Z,23.01
2022-09-12T21:16:47.154Z,22.99
2022-09-12T21:19:15.536Z,22.99
2022-09-12T21:21:43.973Z,22.98
2022-09-12T21:24:15.039Z,23.00
2022-09-12T21:26:43.318Z,23.01
2022-09-12T21:29:11.616Z,23.02
2022-09-12T21:31:39.988Z,22.97
2022-09-12T21:34:09.926Z,23.00
2022-09-12T21:36:38.391Z,22.99
2022-09-12T21:39:07.097Z,22.96
2022-09-12T21:41:35.564Z,23.00
2022-09-12T21:44:04.172Z,22.93
2022-09-12T21:46:32.605Z,22.97
2022-09-12T21:49:00.943Z,23.00
2022-09-12T21:51:31.146Z,22.98
2022-09-12T21:53:59.470Z,23.01
2022-09-12T21:56:27.901Z,22.96
2022-09-12T21:58:56.264Z,23.02
2022-09-12T22:01:24.537Z,22.98
2022-09-12T22:03:53.061Z,23.01
2022-09-12T22:06:22.622Z,23.01
2022-09-12T22:08:52.780Z,23.03
2022-09-12T22:11:21.454Z,22.96
2022-09-12T22:13:49.952Z,23.00
2022-09-12T22:16:18.383Z,22.95
2022-09-12T22:18:47.323Z,22.96
2022-09-12T22:21:18.163Z,23.01
2022-09-12T22:24:04.276Z,23.03
2022-09-12T22:26:42.088Z,22.99
2022-09-12T22:29:11.356Z,22.97
2022-09-12T22:31:39.642Z,22.97
2022-09-12T22:34:08.315Z,22.98
2022-09-12T22:36:38.928Z,22.95
2022-09-12T22:39:07.791Z,23.02
2022-09-12T22:41:37.627Z,22.99
2022-09-12T22:45:47.927Z,23.03
2022-09-12T22:48:17.239Z,22.96
2022-09-12T22:50:45.956Z,23.00
2022-09-12T22:53:14.339Z,23.01
2022-09-12T22:55:45.224Z,22.98
2022-09-12T22:58:13.521Z,23.00
2022-09-12T23:00:46.739Z,22.97
2022-09-12T23:03:16.515Z,22.97
2022-09-12T23:05:46.129Z,23.00
2022-09-12T23:08:14.805Z,22.99
2022-09-12T23:10:44.052Z,22.95
2022-09-12T23:13:12.979Z,22.99
2022-09-12T23:15:41.901Z,22.92
2022-09-12T23:18:10.295Z,22.93
2022-09-12T23:20:40.117Z,22.96
2022-09-12T23:23:08.528Z,22.96
2022-09-12T23:25:36.986Z,22.95
2022-09-12T23:28:05.356Z,22.93
2022-09-12T23:30:33.755Z,22.96
2022-09-12T23:33:02.512Z,22.98
2022-09-12T23:35:30.924Z,22.94
2022-09-12T23:38:00.709Z,22.92
2022-09-12T23:40:29.087Z,22.92
2022-09-12T23:42:57.388Z,22.92
2022-09-12T23:45:25.794Z,22.94
2022-09-12T23:47:54.023Z,22.93
2022-09-12T23:50:22.288Z,22.86
2022-09-12T23:52:50.647Z,22.90
2022-09-12T23:55:20.368Z,22.94
2022-09-12T23:57:48.797Z,22.93
